Yasa Ilhan — V7LI2 — position and weather

sailwx.info

Track history (hours):
 
Tides and Currents Weather Stations Pressure Air Temp Water Temp Dewpoint Dewpoint Depression Visibility Wind Speed Wind Dir Waves Ship Positions

Yasa Ilhan

Last reported at 2017-Nov-19 17:22 UTC. Time now 2017-Dec-17 19:27 UTC.
Position S 28°49' E 032°03'.
Warning: this ship's position is 28 days out of date.

Length 191 m; draft 6.1 m.

Type: Cargo ship. MMSI: 538002750.

Date/timePositionNaut miles runAvg speedWind from/ knotsBaromVisibWave heightAir tempDewpointWater temp
2017-Nov-19 17:22S 28°49' E 032°03'0 0.0
2017-Nov-19 16:58S 28°49' E 032°03'0 0.0
2017-Nov-19 16:31S 28°49' E 032°03'0 0.0
2017-Nov-19 15:55S 28°49' E 032°03'0 0.0
2017-Nov-19 15:28S 28°49' E 032°03'0 0.0
2017-Nov-19 14:58S 28°49' E 032°03'0 0.0
2017-Nov-19 14:31S 28°49' E 032°03'0 0.0
2017-Nov-19 13:58S 28°49' E 032°03'0 0.0
2017-Nov-19 13:28S 28°49' E 032°03'0 0.0
2017-Nov-19 13:00S 28°49' E 032°03'1 2.0
2017-Nov-19 12:30S 28°48' E 032°04'4 7.9
2017-Nov-19 12:00S 28°50' E 032°07'2 3.9
2017-Nov-19 11:30S 28°51' E 032°09'0 0.8
2017-Nov-19 11:00S 28°52' E 032°09'1 1.2
2017-Nov-19 10:30S 28°52' E 032°09'1 2.2
2017-Nov-19 10:00S 28°52' E 032°10'3 5.5
2017-Nov-19 09:30S 28°54' E 032°12'1 1.6
2017-Nov-19 08:59S 28°55' E 032°12'0 0.1
2017-Nov-19 08:29S 28°55' E 032°12'0 0.0
2017-Nov-19 07:56S 28°55' E 032°12'0 0.1
2017-Nov-19 07:23S 28°55' E 032°12'0 0.0
2017-Nov-19 06:59S 28°55' E 032°12'0 0.0
2017-Nov-19 06:29S 28°55' E 032°12'0 0.0
2017-Nov-19 05:50S 28°55' E 032°12'0 0.0
2017-Nov-19 05:29S 28°55' E 032°12'0 0.0
2017-Nov-19 04:56S 28°55' E 032°12'0 0.0
2017-Nov-19 04:26S 28°55' E 032°12'0 0.0
2017-Nov-19 03:59S 28°55' E 032°12'0 0.0
2017-Nov-19 03:29S 28°55' E 032°12'0 0.0
2017-Nov-19 02:59S 28°55' E 032°12'0 0.0
2017-Nov-19 02:29S 28°55' E 032°12'0 0.0
2017-Nov-19 01:59S 28°55' E 032°12'0 0.0
2017-Nov-19 01:29S 28°55' E 032°12'0 0.0
2017-Nov-19 00:59S 28°55' E 032°12'0 0.0
2017-Nov-19 00:29S 28°55' E 032°12'0 0.0
2017-Nov-18 23:59S 28°55' E 032°12'0 0.0
2017-Nov-18 23:29S 28°55' E 032°12'0 0.0
2017-Nov-18 22:56S 28°55' E 032°12'0 0.0
2017-Nov-18 22:29S 28°55' E 032°12'0 0.0
2017-Nov-18 21:59S 28°55' E 032°12'0 0.0
2017-Nov-18 21:26S 28°55' E 032°12'0 0.0
2017-Nov-18 20:56S 28°55' E 032°12'0 0.0
2017-Nov-18 20:29S 28°55' E 032°12'0 0.0
2017-Nov-18 19:56S 28°55' E 032°12'0 0.0
2017-Nov-18 19:29S 28°55' E 032°12'0 0.0
2017-Nov-18 18:59S 28°55' E 032°12'0 0.0
2017-Nov-18 18:29S 28°55' E 032°12'0 0.0
2017-Nov-18 17:50S 28°55' E 032°12'0 0.0
2017-Nov-18 17:29S 28°55' E 032°12'0 0.0
2017-Nov-18 16:59S 28°55' E 032°12'0 0.0
2017-Nov-18 16:29S 28°55' E 032°12'  
2017-Nov-15 07:44S 28°54' E 032°12'0 0.1
2017-Nov-15 07:14S 28°54' E 032°12'0 0.1
2017-Nov-15 06:59S 28°54' E 032°12'0 0.0
2017-Nov-15 05:14S 28°54' E 032°12'0 0.0
2017-Nov-15 04:44S 28°54' E 032°12'0 0.1
2017-Nov-15 04:20S 28°54' E 032°12'0 0.0
2017-Nov-15 03:41S 28°54' E 032°12'0 0.0
2017-Nov-15 02:20S 28°54' E 032°12'0 0.0
2017-Nov-15 01:47S 28°54' E 032°12'0 0.1
2017-Nov-15 01:26S 28°54' E 032°12'0 0.1
2017-Nov-15 00:50S 28°54' E 032°12'0 0.1
2017-Nov-15 00:29S 28°54' E 032°12'0 0.2
2017-Nov-14 23:56S 28°54' E 032°12'0 0.0
2017-Nov-14 15:41S 28°54' E 032°12'0 0.1
2017-Nov-14 15:17S 28°54' E 032°12'0 0.0
2017-Nov-14 13:35S 28°54' E 032°12'0 0.6
2017-Nov-14 13:29S 28°54' E 032°12'0 0.0
2017-Nov-14 12:56S 28°54' E 032°12'0 0.0
2017-Nov-14 12:26S 28°54' E 032°12'0 0.0
2017-Nov-14 11:59S 28°54' E 032°12'0 0.1
2017-Nov-14 11:29S 28°54' E 032°12'0 0.0
2017-Nov-14 10:56S 28°54' E 032°12'0 0.1
2017-Nov-14 10:23S 28°54' E 032°12'0 0.1
2017-Nov-14 09:59S 28°54' E 032°12'0 0.0
2017-Nov-14 09:26S 28°54' E 032°12'0 0.0
2017-Nov-14 08:56S 28°54' E 032°12'0 0.0
2017-Nov-14 08:26S 28°54' E 032°12'0 0.0
2017-Nov-14 07:56S 28°54' E 032°12'0 0.0
2017-Nov-14 07:23S 28°54' E 032°12'0 0.1
2017-Nov-14 06:59S 28°54' E 032°12'0 0.0
2017-Nov-14 06:29S 28°54' E 032°12'0 0.0
2017-Nov-14 05:44S 28°54' E 032°12'0 0.0
2017-Nov-14 05:29S 28°54' E 032°12'0 0.0
2017-Nov-14 04:59S 28°54' E 032°12'0 0.0
2017-Nov-13 01:14S 28°54' E 032°12'0 0.0
2017-Nov-13 00:32S 28°54' E 032°12'1 0.0
2017-Nov-12 10:38S 28°54' E 032°12'0 0.1
2017-Nov-12 10:29S 28°54' E 032°12'0 0.0
2017-Nov-12 09:56S 28°54' E 032°12'0 0.0
2017-Nov-12 09:26S 28°54' E 032°12'0 0.0
2017-Nov-12 08:56S 28°54' E 032°12'0 0.0
2017-Nov-12 08:29S 28°54' E 032°12'0 0.0
2017-Nov-12 07:56S 28°54' E 032°12'0 0.1
2017-Nov-12 07:26S 28°54' E 032°12'0 0.0
2017-Nov-12 06:59S 28°54' E 032°12'0 0.0
2017-Nov-12 06:26S 28°54' E 032°12'0 0.0
2017-Nov-12 05:50S 28°54' E 032°12'0 0.0
2017-Nov-12 05:26S 28°54' E 032°12'0 0.0
2017-Nov-12 04:44S 28°54' E 032°12'  
Track history (hours):
 
Tides and Currents Weather Stations Pressure Air Temp Water Temp Dewpoint Dewpoint Depression Visibility Wind Speed Wind Dir Waves Ship Positions

Yasa Ilhan

Last reported at 2017-Nov-19 17:22 UTC. Time now 2017-Dec-17 19:27 UTC.
Position S 28°49' E 032°03'.
Warning: this ship's position is 28 days out of date.

Length 191 m; draft 6.1 m.

Type: Cargo ship. MMSI: 538002750.

Date/timePositionNaut miles runAvg speedWind from/ knotsBaromVisibWave heightAir tempDewpointWater temp
2017-Nov-19 17:22S 28°49' E 032°03'0 0.0
2017-Nov-19 16:58S 28°49' E 032°03'0 0.0
2017-Nov-19 16:31S 28°49' E 032°03'0 0.0
2017-Nov-19 15:55S 28°49' E 032°03'0 0.0
2017-Nov-19 15:28S 28°49' E 032°03'0 0.0
2017-Nov-19 14:58S 28°49' E 032°03'0 0.0
2017-Nov-19 14:31S 28°49' E 032°03'0 0.0
2017-Nov-19 13:58S 28°49' E 032°03'0 0.0
2017-Nov-19 13:28S 28°49' E 032°03'0 0.0
2017-Nov-19 13:00S 28°49' E 032°03'1 2.0
2017-Nov-19 12:30S 28°48' E 032°04'4 7.9
2017-Nov-19 12:00S 28°50' E 032°07'2 3.9
2017-Nov-19 11:30S 28°51' E 032°09'0 0.8
2017-Nov-19 11:00S 28°52' E 032°09'1 1.2
2017-Nov-19 10:30S 28°52' E 032°09'1 2.2
2017-Nov-19 10:00S 28°52' E 032°10'3 5.5
2017-Nov-19 09:30S 28°54' E 032°12'1 1.6
2017-Nov-19 08:59S 28°55' E 032°12'0 0.1
2017-Nov-19 08:29S 28°55' E 032°12'0 0.0
2017-Nov-19 07:56S 28°55' E 032°12'0 0.1
2017-Nov-19 07:23S 28°55' E 032°12'0 0.0
2017-Nov-19 06:59S 28°55' E 032°12'0 0.0
2017-Nov-19 06:29S 28°55' E 032°12'0 0.0
2017-Nov-19 05:50S 28°55' E 032°12'0 0.0
2017-Nov-19 05:29S 28°55' E 032°12'0 0.0
2017-Nov-19 04:56S 28°55' E 032°12'0 0.0
2017-Nov-19 04:26S 28°55' E 032°12'0 0.0
2017-Nov-19 03:59S 28°55' E 032°12'0 0.0
2017-Nov-19 03:29S 28°55' E 032°12'0 0.0
2017-Nov-19 02:59S 28°55' E 032°12'0 0.0
2017-Nov-19 02:29S 28°55' E 032°12'0 0.0
2017-Nov-19 01:59S 28°55' E 032°12'0 0.0
2017-Nov-19 01:29S 28°55' E 032°12'0 0.0
2017-Nov-19 00:59S 28°55' E 032°12'0 0.0
2017-Nov-19 00:29S 28°55' E 032°12'0 0.0
2017-Nov-18 23:59S 28°55' E 032°12'0 0.0
2017-Nov-18 23:29S 28°55' E 032°12'0 0.0
2017-Nov-18 22:56S 28°55' E 032°12'0 0.0
2017-Nov-18 22:29S 28°55' E 032°12'0 0.0
2017-Nov-18 21:59S 28°55' E 032°12'0 0.0
2017-Nov-18 21:26S 28°55' E 032°12'0 0.0
2017-Nov-18 20:56S 28°55' E 032°12'0 0.0
2017-Nov-18 20:29S 28°55' E 032°12'0 0.0
2017-Nov-18 19:56S 28°55' E 032°12'0 0.0
2017-Nov-18 19:29S 28°55' E 032°12'0 0.0
2017-Nov-18 18:59S 28°55' E 032°12'0 0.0
2017-Nov-18 18:29S 28°55' E 032°12'0 0.0
2017-Nov-18 17:50S 28°55' E 032°12'0 0.0
2017-Nov-18 17:29S 28°55' E 032°12'0 0.0
2017-Nov-18 16:59S 28°55' E 032°12'0 0.0
2017-Nov-18 16:29S 28°55' E 032°12'  
2017-Nov-15 07:44S 28°54' E 032°12'0 0.1
2017-Nov-15 07:14S 28°54' E 032°12'0 0.1
2017-Nov-15 06:59S 28°54' E 032°12'0 0.0
2017-Nov-15 05:14S 28°54' E 032°12'0 0.0
2017-Nov-15 04:44S 28°54' E 032°12'0 0.1
2017-Nov-15 04:20S 28°54' E 032°12'0 0.0
2017-Nov-15 03:41S 28°54' E 032°12'0 0.0
2017-Nov-15 02:20S 28°54' E 032°12'0 0.0
2017-Nov-15 01:47S 28°54' E 032°12'0 0.1
2017-Nov-15 01:26S 28°54' E 032°12'0 0.1
2017-Nov-15 00:50S 28°54' E 032°12'0 0.1
2017-Nov-15 00:29S 28°54' E 032°12'0 0.2
2017-Nov-14 23:56S 28°54' E 032°12'0 0.0
2017-Nov-14 15:41S 28°54' E 032°12'0 0.1
2017-Nov-14 15:17S 28°54' E 032°12'0 0.0
2017-Nov-14 13:35S 28°54' E 032°12'0 0.6
2017-Nov-14 13:29S 28°54' E 032°12'0 0.0
2017-Nov-14 12:56S 28°54' E 032°12'0 0.0
2017-Nov-14 12:26S 28°54' E 032°12'0 0.0
2017-Nov-14 11:59S 28°54' E 032°12'0 0.1
2017-Nov-14 11:29S 28°54' E 032°12'0 0.0
2017-Nov-14 10:56S 28°54' E 032°12'0 0.1
2017-Nov-14 10:23S 28°54' E 032°12'0 0.1
2017-Nov-14 09:59S 28°54' E 032°12'0 0.0
2017-Nov-14 09:26S 28°54' E 032°12'0 0.0
2017-Nov-14 08:56S 28°54' E 032°12'0 0.0
2017-Nov-14 08:26S 28°54' E 032°12'0 0.0
2017-Nov-14 07:56S 28°54' E 032°12'0 0.0
2017-Nov-14 07:23S 28°54' E 032°12'0 0.1
2017-Nov-14 06:59S 28°54' E 032°12'0 0.0
2017-Nov-14 06:29S 28°54' E 032°12'0 0.0
2017-Nov-14 05:44S 28°54' E 032°12'0 0.0
2017-Nov-14 05:29S 28°54' E 032°12'0 0.0
2017-Nov-14 04:59S 28°54' E 032°12'0 0.0
2017-Nov-13 01:14S 28°54' E 032°12'0 0.0
2017-Nov-13 00:32S 28°54' E 032°12'1 0.0
2017-Nov-12 10:38S 28°54' E 032°12'0 0.1
2017-Nov-12 10:29S 28°54' E 032°12'0 0.0
2017-Nov-12 09:56S 28°54' E 032°12'0 0.0
2017-Nov-12 09:26S 28°54' E 032°12'0 0.0
2017-Nov-12 08:56S 28°54' E 032°12'0 0.0
2017-Nov-12 08:29S 28°54' E 032°12'0 0.0
2017-Nov-12 07:56S 28°54' E 032°12'0 0.1
2017-Nov-12 07:26S 28°54' E 032°12'0 0.0
2017-Nov-12 06:59S 28°54' E 032°12'0 0.0
2017-Nov-12 06:26S 28°54' E 032°12'0 0.0
2017-Nov-12 05:50S 28°54' E 032°12'0 0.0
2017-Nov-12 05:26S 28°54' E 032°12'0 0.0
2017-Nov-12 04:44S 28°54' E 032°12'  

Dump ship's entire track history